createdAt,value
2023-05-05T00:00:13.758Z,15.7124
2023-05-05T00:01:14.809Z,15.6646
2023-05-05T00:02:15.424Z,15.6489
2023-05-05T00:03:16.730Z,15.6055
2023-05-05T00:04:18.039Z,15.6180
2023-05-05T00:05:18.293Z,15.5957
2023-05-05T00:06:18.840Z,15.6415
2023-05-05T00:07:19.366Z,15.6473
2023-05-05T00:08:19.678Z,15.6075
2023-05-05T00:09:20.233Z,15.5785
2023-05-05T00:10:21.108Z,15.5715
2023-05-05T00:11:22.177Z,15.5516
2023-05-05T00:12:22.752Z,15.5343
2023-05-05T00:13:23.906Z,15.5014
2023-05-05T00:14:24.702Z,15.4570
2023-05-05T00:15:25.265Z,15.4084
2023-05-05T00:16:26.065Z,15.3585
2023-05-05T00:17:26.985Z,15.3016
2023-05-05T00:18:28.135Z,15.2675
2023-05-05T00:19:28.868Z,15.1813
2023-05-05T00:20:30.070Z,15.1233
2023-05-05T00:21:30.842Z,15.0827
2023-05-05T00:22:31.664Z,15.0372
2023-05-05T00:23:32.228Z,14.9991
2023-05-05T00:24:32.881Z,14.9385
2023-05-05T00:25:33.534Z,14.8908
2023-05-05T00:26:34.265Z,14.8599
2023-05-05T00:27:35.079Z,14.8322
2023-05-05T00:28:35.635Z,14.7777
2023-05-05T00:29:36.427Z,14.7294
2023-05-05T00:30:37.330Z,14.7126
2023-05-05T00:31:38.190Z,14.7398
2023-05-05T00:32:39.155Z,14.7486
2023-05-05T00:33:39.786Z,14.7156
2023-05-05T00:34:40.648Z,14.6960
2023-05-05T00:35:41.558Z,14.7046
2023-05-05T00:36:43.289Z,14.6899
2023-05-05T00:37:43.320Z,14.6966
2023-05-05T00:38:44.078Z,14.7038
2023-05-05T00:39:45.009Z,14.7356
2023-05-05T00:40:45.929Z,14.7534
2023-05-05T00:41:46.637Z,14.7700
2023-05-05T00:42:47.538Z,14.7948
2023-05-05T00:43:48.382Z,14.8066
2023-05-05T00:44:48.970Z,14.7964
2023-05-05T00:45:49.610Z,14.8301
2023-05-05T00:46:50.643Z,14.8279
2023-05-05T00:47:51.825Z,14.8258
2023-05-05T00:48:53.918Z,14.8206
2023-05-05T00:49:53.577Z,14.8033
2023-05-05T00:50:54.483Z,14.7856
2023-05-05T00:51:55.331Z,14.7437
2023-05-05T00:52:56.016Z,14.7323
2023-05-05T00:53:56.963Z,14.6995
2023-05-05T00:54:57.617Z,14.6632
2023-05-05T00:55:58.344Z,14.6189
2023-05-05T00:56:59.269Z,14.6034
2023-05-05T00:57:59.882Z,14.5959
2023-05-05T00:59:01.470Z,14.5988
2023-05-05T01:00:01.207Z,14.6097
2023-05-05T01:01:01.929Z,14.5962
2023-05-05T01:02:02.796Z,14.5684
2023-05-05T01:04:22.425Z,14.5428
2023-05-05T01:05:23.413Z,14.5200
2023-05-05T01:11:30.482Z,14.7929
2023-05-05T01:12:31.813Z,14.8819
2023-05-05T01:18:37.687Z,15.1492
2023-05-05T01:19:38.273Z,15.1624
2023-05-05T01:20:39.394Z,15.2091
2023-05-05T01:21:39.720Z,15.2132
2023-05-05T01:22:40.871Z,15.2064
2023-05-05T01:23:41.694Z,15.1981
2023-05-05T01:24:43.325Z,15.1631
2023-05-05T01:25:43.449Z,15.1213
2023-05-05T01:26:44.260Z,15.0879
2023-05-05T01:27:45.045Z,15.0350
2023-05-05T01:30:47.184Z,14.8566
2023-05-05T01:31:48.303Z,14.7416
2023-05-05T01:36:51.868Z,14.4807
2023-05-05T01:37:51.911Z,14.4615
2023-05-05T01:38:51.981Z,14.4085
2023-05-05T01:39:52.430Z,14.3882
2023-05-05T01:40:53.636Z,14.3369
2023-05-05T01:41:55.793Z,14.3384
2023-05-05T01:42:58.013Z,14.2972
2023-05-05T01:44:00.275Z,14.2559
2023-05-05T01:45:02.319Z,14.2285
2023-05-05T01:46:03.449Z,14.1902
2023-05-05T01:47:04.491Z,14.1373
2023-05-05T01:54:15.317Z,14.0173
2023-05-05T02:00:19.223Z,13.9992
2023-05-05T02:01:19.766Z,13.9893
2023-05-05T02:03:20.976Z,13.9028
2023-05-05T02:04:22.030Z,13.8739
2023-05-05T02:05:22.887Z,13.8778
2023-05-05T02:06:22.973Z,13.8828
2023-05-05T02:07:24.647Z,13.8746
2023-05-05T02:08:24.344Z,13.8945
2023-05-05T02:09:25.332Z,13.9060
2023-05-05T02:10:26.071Z,13.9662
2023-05-05T02:11:26.115Z,13.9932
2023-05-05T02:12:29.661Z,14.1038
2023-05-05T02:13:26.841Z,14.2793
2023-05-05T02:14:27.137Z,14.2866
2023-05-05T02:15:27.952Z,14.3604
2023-05-05T02:16:29.119Z,14.4259
2023-05-05T02:17:30.086Z,14.4254
2023-05-05T02:18:30.849Z,14.4375
2023-05-05T02:19:31.681Z,14.4580
2023-05-05T02:20:31.770Z,14.4627
2023-05-05T02:21:32.693Z,14.5159
2023-05-05T02:22:33.552Z,14.5571
2023-05-05T02:23:34.311Z,14.5772
2023-05-05T02:24:35.104Z,14.6389
2023-05-05T02:25:36.399Z,14.7266
2023-05-05T02:26:37.280Z,14.7835
2023-05-05T02:27:38.256Z,14.8145
2023-05-05T02:28:38.938Z,14.8143
2023-05-05T02:29:40.241Z,14.8176
2023-05-05T02:30:40.637Z,14.8231
2023-05-05T02:31:41.670Z,14.8149
2023-05-05T02:32:42.927Z,14.8140
2023-05-05T02:33:43.828Z,14.7871
2023-05-05T02:34:44.540Z,14.7604
2023-05-05T02:35:45.493Z,14.7473
2023-05-05T02:36:46.260Z,14.7352
2023-05-05T02:37:47.122Z,14.7119
2023-05-05T02:38:48.120Z,14.6950
2023-05-05T02:39:48.751Z,14.6695
2023-05-05T02:42:50.067Z,14.5448
2023-05-05T02:44:50.394Z,14.4215
2023-05-05T02:45:51.380Z,14.3262
2023-05-05T02:46:52.534Z,14.2847
2023-05-05T02:47:53.717Z,14.2212
2023-05-05T02:48:54.204Z,14.1779
2023-05-05T02:49:55.409Z,14.1168
2023-05-05T02:50:55.371Z,14.0773
2023-05-05T02:51:56.000Z,14.0341
2023-05-05T02:52:56.690Z,14.0142
2023-05-05T02:53:57.554Z,13.9837
2023-05-05T02:54:57.921Z,13.9401
2023-05-05T02:55:58.365Z,13.9229
2023-05-05T02:56:59.541Z,13.9285
2023-05-05T02:58:00.426Z,13.9342
2023-05-05T02:59:01.268Z,13.9394
2023-05-05T03:00:01.321Z,13.9402
2023-05-05T03:01:01.985Z,13.9524
2023-05-05T03:02:02.217Z,13.9564
2023-05-05T03:03:03.594Z,13.9469
2023-05-05T03:04:03.775Z,13.9312
2023-05-05T03:05:04.643Z,13.9272
2023-05-05T03:06:05.548Z,13.9044
2023-05-05T03:07:06.455Z,13.8777
2023-05-05T03:08:07.354Z,13.8469
2023-05-05T03:09:08.227Z,13.8395
2023-05-05T03:10:09.444Z,13.7976
2023-05-05T03:11:09.268Z,13.8006
2023-05-05T03:12:10.065Z,13.7977
2023-05-05T03:13:11.368Z,13.8017
2023-05-05T03:14:12.154Z,13.7908
2023-05-05T03:15:13.087Z,13.7564
2023-05-05T03:16:14.132Z,13.7490
2023-05-05T03:17:15.057Z,13.7484
2023-05-05T03:18:16.398Z,13.7267
2023-05-05T03:19:17.092Z,13.7115
2023-05-05T03:20:17.404Z,13.7071
2023-05-05T03:21:18.445Z,13.7072
2023-05-05T03:22:19.158Z,13.7004
2023-05-05T03:23:20.355Z,13.7208
2023-05-05T03:24:20.224Z,13.7211
2023-05-05T03:25:20.991Z,13.7408
2023-05-05T03:26:21.659Z,13.7540
2023-05-05T03:27:22.544Z,13.7780
2023-05-05T03:28:23.732Z,13.7957
2023-05-05T03:29:23.950Z,13.8112
2023-05-05T03:30:24.001Z,13.8219
2023-05-05T03:31:24.489Z,13.8275
2023-05-05T03:34:17.766Z,13.8333
2023-05-05T03:35:18.643Z,13.8336
2023-05-05T03:36:19.471Z,13.8396
2023-05-05T03:37:20.350Z,13.8622
2023-05-05T03:38:21.217Z,13.8851
2023-05-05T03:39:21.904Z,13.8978
2023-05-05T03:40:29.618Z,13.9026
2023-05-05T03:41:23.516Z,13.9313
2023-05-05T03:42:24.155Z,13.9285
2023-05-05T03:43:24.974Z,13.9273
2023-05-05T03:44:25.709Z,13.9234
2023-05-05T03:45:26.659Z,13.9315
2023-05-05T03:46:27.674Z,13.9276
2023-05-05T03:47:29.623Z,13.9276
2023-05-05T03:49:30.320Z,13.9253
2023-05-05T03:50:30.466Z,13.9226
2023-05-05T03:51:31.023Z,13.9171
2023-05-05T03:52:31.553Z,13.9205
2023-05-05T03:53:32.377Z,13.9252
2023-05-05T03:54:33.671Z,13.9124
2023-05-05T03:55:34.699Z,13.9064
2023-05-05T03:56:35.978Z,13.9032
2023-05-05T03:57:36.757Z,13.8872
2023-05-05T03:58:37.256Z,13.8855
2023-05-05T03:59:38.267Z,13.8666
2023-05-05T04:00:39.603Z,13.8501
2023-05-05T04:01:40.527Z,13.8298
2023-05-05T04:02:41.346Z,13.8005
2023-05-05T04:03:43.329Z,13.7797
2023-05-05T04:04:44.702Z,13.7504
2023-05-05T04:05:44.846Z,13.7362
2023-05-05T04:06:46.813Z,13.7189
2023-05-05T04:07:47.890Z,13.6891
2023-05-05T04:08:48.718Z,13.6594
2023-05-05T04:09:49.600Z,13.6506
2023-05-05T04:10:49.645Z,13.6376
2023-05-05T04:11:49.859Z,13.6304
2023-05-05T04:12:51.031Z,13.6103
2023-05-05T04:13:52.053Z,13.5878
2023-05-05T04:14:52.689Z,13.5587
2023-05-05T04:16:53.321Z,13.5179
2023-05-05T04:17:53.565Z,13.5041
2023-05-05T04:18:54.538Z,13.4895
2023-05-05T04:19:55.374Z,13.4613
2023-05-05T04:20:55.408Z,13.4378
2023-05-05T04:21:55.901Z,13.4224
2023-05-05T04:22:58.248Z,13.4133
2023-05-05T04:23:59.144Z,13.3777
2023-05-05T04:25:00.301Z,13.3439
2023-05-05T04:26:01.135Z,13.3262
2023-05-05T04:27:02.055Z,13.3051
2023-05-05T04:29:02.815Z,13.2823
2023-05-05T04:30:03.854Z,13.2782
2023-05-05T04:32:04.459Z,13.2391
2023-05-05T04:33:04.612Z,13.1828
2023-05-05T04:34:05.408Z,13.2036
2023-05-05T04:35:06.431Z,13.2054
2023-05-05T04:36:07.472Z,13.2434
2023-05-05T04:37:08.304Z,13.2367
2023-05-05T04:38:09.365Z,13.2445
2023-05-05T04:39:10.522Z,13.2849
2023-05-05T04:40:11.352Z,13.2913
2023-05-05T04:41:12.338Z,13.3120
2023-05-05T04:42:12.533Z,13.3307
2023-05-05T04:43:13.500Z,13.3656
2023-05-05T04:44:14.533Z,13.3918
2023-05-05T04:45:15.295Z,13.3993
2023-05-05T04:46:16.326Z,13.4129
2023-05-05T04:47:16.302Z,13.4404
2023-05-05T04:48:16.343Z,13.4507
2023-05-05T04:49:17.514Z,13.4631
2023-05-05T04:50:17.501Z,13.4599
2023-05-05T04:51:18.456Z,13.4537
2023-05-05T04:52:19.329Z,13.4404
2023-05-05T04:53:20.187Z,13.4287
2023-05-05T04:54:21.201Z,13.4113
2023-05-05T04:55:22.003Z,13.3877
2023-05-05T04:56:22.979Z,13.3849
2023-05-05T04:57:24.016Z,13.3552
2023-05-05T04:58:24.893Z,13.3572
2023-05-05T04:59:25.887Z,13.3025
2023-05-05T05:00:26.668Z,13.2500
2023-05-05T05:01:27.860Z,13.2582
2023-05-05T05:02:28.286Z,13.2620
2023-05-05T05:03:28.489Z,13.2694
2023-05-05T05:04:28.811Z,13.2787
2023-05-05T05:05:29.789Z,13.2547
2023-05-05T05:06:30.777Z,13.2643
2023-05-05T05:07:30.818Z,13.2809
2023-05-05T05:08:31.680Z,13.3002
2023-05-05T05:09:32.633Z,13.3157
2023-05-05T05:10:33.600Z,13.3088
2023-05-05T05:11:34.967Z,13.3082
2023-05-05T05:12:35.115Z,13.3160
2023-05-05T05:13:35.407Z,13.3650
2023-05-05T05:14:36.423Z,13.3794
2023-05-05T05:15:36.812Z,13.3900
2023-05-05T05:16:37.094Z,13.4034
2023-05-05T05:17:38.197Z,13.4075
2023-05-05T05:18:39.662Z,13.3907
2023-05-05T05:19:40.079Z,13.3766
2023-05-05T05:20:40.756Z,13.3751
2023-05-05T05:21:40.891Z,13.3712
2023-05-05T05:22:41.519Z,13.3617
2023-05-05T05:23:42.080Z,13.3719
2023-05-05T05:24:43.231Z,13.3735
2023-05-05T05:25:43.315Z,13.3701
2023-05-05T05:26:44.607Z,13.3970
2023-05-05T05:27:50.172Z,13.4343
2023-05-05T05:28:45.870Z,13.4480
2023-05-05T05:29:46.748Z,13.4729
2023-05-05T05:30:47.486Z,13.5118
2023-05-05T05:31:47.478Z,13.5463
2023-05-05T05:32:49.102Z,13.5713
2023-05-05T05:33:49.085Z,13.5905
2023-05-05T05:34:49.925Z,13.6081
2023-05-05T05:35:50.065Z,13.6286
2023-05-05T05:36:51.069Z,13.6657
2023-05-05T05:37:51.107Z,13.6855
2023-05-05T05:38:52.396Z,13.7042
2023-05-05T05:39:53.443Z,13.7071
2023-05-05T05:40:53.976Z,13.7012
2023-05-05T05:41:54.886Z,13.7020
2023-05-05T05:42:56.265Z,13.7134
2023-05-05T05:43:57.318Z,13.7347
2023-05-05T05:44:58.147Z,13.7529
2023-05-05T05:45:58.317Z,13.7788
2023-05-05T05:46:58.909Z,13.8193
2023-05-05T05:48:00.045Z,13.8513
2023-05-05T05:49:00.019Z,13.8893
2023-05-05T05:50:01.229Z,13.9225
2023-05-05T05:51:02.448Z,13.9532
2023-05-05T05:52:02.290Z,13.9620
2023-05-05T05:53:02.952Z,13.9697
2023-05-05T05:54:04.159Z,14.0191
2023-05-05T05:55:05.090Z,14.1233
2023-05-05T05:56:06.301Z,14.1759
2023-05-05T05:57:07.597Z,14.2262
2023-05-05T05:58:08.484Z,14.2825
2023-05-05T05:59:09.537Z,14.3325
2023-05-05T06:00:11.662Z,14.3555
2023-05-05T06:01:12.505Z,14.4043
2023-05-05T06:02:13.885Z,14.4342
2023-05-05T06:03:14.876Z,14.4978
2023-05-05T06:04:15.955Z,14.5778
2023-05-05T06:05:15.887Z,14.6246
2023-05-05T06:06:16.762Z,14.6576
2023-05-05T06:07:17.740Z,14.6841
2023-05-05T06:08:19.070Z,14.6907
2023-05-05T06:09:19.936Z,14.7043
2023-05-05T06:10:28.047Z,14.7160
2023-05-05T06:11:24.873Z,14.7386
2023-05-05T06:12:25.703Z,14.7523
2023-05-05T06:13:25.867Z,14.7742
2023-05-05T06:14:26.516Z,14.7894
2023-05-05T06:15:27.650Z,14.8091
2023-05-05T06:16:29.020Z,14.8182
2023-05-05T06:17:30.046Z,14.8726
2023-05-05T06:18:30.854Z,14.9092
2023-05-05T06:19:31.693Z,14.9489
2023-05-05T06:20:32.681Z,14.9858
2023-05-05T06:21:33.701Z,15.0229
2023-05-05T06:22:34.645Z,15.0822
2023-05-05T06:23:35.629Z,15.1245
2023-05-05T06:24:36.636Z,15.1547
2023-05-05T06:25:37.544Z,15.2031
2023-05-05T06:26:38.547Z,15.2981
2023-05-05T06:27:39.493Z,15.3633
2023-05-05T06:28:40.669Z,15.4285
2023-05-05T06:29:41.798Z,15.4917
2023-05-05T06:30:43.049Z,15.5307
2023-05-05T06:31:44.327Z,15.5665
2023-05-05T06:32:45.480Z,15.6071
2023-05-05T06:33:46.525Z,15.6543
2023-05-05T06:34:46.632Z,15.6983
2023-05-05T06:35:47.824Z,15.7213
2023-05-05T06:36:48.214Z,15.7432
2023-05-05T06:37:50.259Z,15.7504
2023-05-05T06:40:50.534Z,15.8123
2023-05-05T06:41:51.882Z,15.8317
2023-05-05T06:42:53.050Z,15.8821
2023-05-05T06:43:54.549Z,15.9348
2023-05-05T06:44:55.003Z,15.9595
2023-05-05T06:45:56.191Z,16.0066
2023-05-05T06:46:56.219Z,16.0319
2023-05-05T06:47:57.643Z,16.0905
2023-05-05T06:48:57.597Z,16.1091
2023-05-05T06:49:58.717Z,16.1442
2023-05-05T06:50:59.417Z,16.1687
2023-05-05T06:52:00.097Z,16.2582
2023-05-05T06:53:01.109Z,16.2916
2023-05-05T06:54:02.331Z,16.3345
2023-05-05T06:55:02.984Z,16.3975
2023-05-05T06:56:04.124Z,16.3747
2023-05-05T06:57:04.269Z,16.4020
2023-05-05T06:58:05.230Z,16.4144
2023-05-05T06:59:06.426Z,16.4916
2023-05-05T07:00:07.832Z,16.5046
2023-05-05T07:01:08.111Z,16.5184
2023-05-05T07:02:08.184Z,16.4434
2023-05-05T07:03:08.302Z,16.4258
2023-05-05T07:04:08.549Z,16.4168
2023-05-05T07:05:09.648Z,16.3624
2023-05-05T07:06:10.747Z,16.3621
2023-05-05T07:07:12.012Z,16.3316
2023-05-05T07:08:13.085Z,16.3637
2023-05-05T07:09:15.755Z,16.3672
2023-05-05T07:10:15.653Z,16.3796
2023-05-05T07:11:16.422Z,16.3924
2023-05-05T07:12:17.622Z,16.3999
2023-05-05T07:13:19.001Z,16.4298
2023-05-05T07:14:19.041Z,16.4337
2023-05-05T07:15:29.096Z,16.4492
2023-05-05T07:16:24.623Z,16.4818
2023-05-05T07:17:25.864Z,16.5284
2023-05-05T07:18:25.872Z,16.5888
2023-05-05T07:19:26.770Z,16.5959
2023-05-05T07:20:27.922Z,16.6518
2023-05-05T07:21:28.928Z,16.6941
2023-05-05T07:22:30.116Z,16.7633
2023-05-05T07:23:31.265Z,16.8261
2023-05-05T07:24:32.261Z,16.8309
2023-05-05T07:25:33.399Z,16.8666
2023-05-05T07:26:34.711Z,16.9132
2023-05-05T07:27:35.811Z,16.9058
2023-05-05T07:28:36.930Z,16.9231
2023-05-05T07:29:37.833Z,16.9371
2023-05-05T07:30:38.260Z,16.9788
2023-05-05T07:31:39.547Z,16.9777
2023-05-05T07:32:39.614Z,17.0004
2023-05-05T07:33:40.761Z,17.0106
2023-05-05T07:34:41.626Z,17.0291
2023-05-05T07:35:42.597Z,17.0257
2023-05-05T07:36:43.756Z,17.0332
2023-05-05T07:37:44.718Z,17.0309
2023-05-05T07:38:44.965Z,17.0060
2023-05-05T07:39:45.939Z,17.0103
2023-05-05T07:40:46.649Z,16.9815
2023-05-05T07:41:47.811Z,17.0202
2023-05-05T07:42:48.826Z,17.0735
2023-05-05T07:43:49.951Z,17.0986
2023-05-05T07:44:50.957Z,17.1542
2023-05-05T07:45:52.133Z,17.2098
2023-05-05T07:46:52.137Z,17.2102
2023-05-05T07:47:53.249Z,17.2004
2023-05-05T07:49:54.211Z,17.2016
2023-05-05T07:50:54.619Z,17.2137
2023-05-05T07:51:55.873Z,17.2020
2023-05-05T07:53:02.525Z,17.1761
2023-05-05T07:53:56.873Z,17.1848
2023-05-05T07:54:57.074Z,17.2392
2023-05-05T07:55:58.079Z,17.3074
2023-05-05T07:56:59.023Z,17.2905
2023-05-05T07:58:00.200Z,17.2538
2023-05-05T07:59:01.299Z,17.2139
2023-05-05T08:00:02.151Z,17.2103
2023-05-05T08:01:02.226Z,17.1917
2023-05-05T08:02:03.138Z,17.2028
2023-05-05T08:03:03.878Z,17.2339
2023-05-05T08:04:04.938Z,17.2737
2023-05-05T08:05:05.060Z,17.2946
2023-05-05T08:06:04.990Z,17.3032
2023-05-05T08:07:06.102Z,17.3367
2023-05-05T08:08:06.706Z,17.3886
2023-05-05T08:09:07.624Z,17.4612
2023-05-05T08:10:08.916Z,17.5068
2023-05-05T08:11:10.037Z,17.5371
2023-05-05T08:12:10.763Z,17.5011
2023-05-05T08:13:11.071Z,17.4821
2023-05-05T08:14:12.289Z,17.4946
2023-05-05T08:15:12.588Z,17.5393
2023-05-05T08:16:12.708Z,17.6239
2023-05-05T08:17:13.845Z,17.6012
2023-05-05T08:18:14.017Z,17.5989
2023-05-05T08:19:27.566Z,17.5958
2023-05-05T08:20:14.638Z,17.5782
2023-05-05T08:21:14.744Z,17.5798
2023-05-05T08:22:15.881Z,17.5726
2023-05-05T08:23:16.010Z,17.5783
2023-05-05T08:24:17.403Z,17.5626
2023-05-05T08:25:18.667Z,17.5965
2023-05-05T08:26:18.845Z,17.6325
2023-05-05T08:27:19.812Z,17.6237
2023-05-05T08:28:19.895Z,17.6301
2023-05-05T08:29:20.913Z,17.6579
2023-05-05T08:30:20.963Z,17.7318
2023-05-05T08:31:22.211Z,17.8093
2023-05-05T08:34:23.877Z,17.8537
2023-05-05T08:35:24.301Z,17.8745
2023-05-05T08:36:25.543Z,17.9632
2023-05-05T08:37:26.558Z,18.0188
2023-05-05T08:38:27.720Z,18.0393
2023-05-05T08:39:27.998Z,18.0306
2023-05-05T08:40:28.584Z,18.0381
2023-05-05T08:41:29.640Z,18.0636
2023-05-05T08:42:36.937Z,18.1106
2023-05-05T08:43:31.931Z,18.1840
2023-05-05T08:44:33.150Z,18.2348
2023-05-05T08:45:34.059Z,18.2887
2023-05-05T08:46:35.265Z,18.3442
2023-05-05T08:47:35.496Z,18.3921
2023-05-05T08:48:35.734Z,18.4640
2023-05-05T08:50:36.732Z,18.5372
2023-05-05T08:51:37.503Z,18.5570
2023-05-05T08:52:39.080Z,18.5904
2023-05-05T08:53:40.164Z,18.6060
2023-05-05T08:54:40.221Z,18.5722
2023-05-05T08:55:40.695Z,18.6077
2023-05-05T08:56:41.984Z,18.6536
2023-05-05T08:57:43.406Z,18.6586
2023-05-05T08:58:44.386Z,18.7155
2023-05-05T08:59:44.453Z,18.7363
2023-05-05T09:00:45.735Z,18.7320
2023-05-05T09:01:45.990Z,18.7496
2023-05-05T09:02:46.242Z,18.7432
2023-05-05T09:03:47.266Z,18.6969
2023-05-05T09:04:48.556Z,18.7163
2023-05-05T09:05:49.049Z,18.6864
2023-05-05T09:06:49.131Z,18.6427
2023-05-05T09:07:50.384Z,18.5803
2023-05-05T09:08:51.676Z,18.5762
2023-05-05T09:09:51.693Z,18.5871
2023-05-05T09:10:51.997Z,18.5746
2023-05-05T09:11:53.162Z,18.6642
2023-05-05T09:12:53.251Z,18.6793
2023-05-05T09:13:53.462Z,18.6997
2023-05-05T09:14:53.402Z,18.7040
2023-05-05T09:15:53.538Z,18.7575
2023-05-05T09:16:53.547Z,18.8010
2023-05-05T09:17:53.767Z,18.7548
2023-05-05T09:18:54.982Z,18.7937
2023-05-05T09:19:55.046Z,18.8718
2023-05-05T09:20:58.143Z,18.8388
2023-05-05T09:21:56.743Z,18.8606
2023-05-05T09:22:57.976Z,18.8625
2023-05-05T09:24:04.897Z,18.8527
2023-05-05T09:24:59.700Z,18.8621
2023-05-05T09:25:59.917Z,18.8649
2023-05-05T09:27:01.356Z,18.9439
2023-05-05T09:28:01.327Z,18.9766
2023-05-05T09:29:01.418Z,19.0331
2023-05-05T09:30:02.653Z,19.0290
2023-05-05T09:31:02.736Z,19.0299
2023-05-05T09:32:02.828Z,19.0784
2023-05-05T09:33:03.559Z,19.1267
2023-05-05T09:34:04.720Z,19.1549
2023-05-05T09:35:04.730Z,19.1827
2023-05-05T09:36:04.877Z,19.2545
2023-05-05T09:37:06.370Z,19.2790
2023-05-05T09:38:07.017Z,19.2579
2023-05-05T09:39:07.280Z,19.2486
2023-05-05T09:40:07.389Z,19.3181
2023-05-05T09:41:08.637Z,19.3380
2023-05-05T09:42:09.910Z,19.3440
2023-05-05T09:43:10.073Z,19.2841
2023-05-05T09:44:10.164Z,19.2659
2023-05-05T09:45:11.342Z,19.3654
2023-05-05T09:46:11.545Z,19.4252
2023-05-05T09:47:28.989Z,19.4626
2023-05-05T09:48:17.325Z,19.4695
2023-05-05T09:49:17.453Z,19.5602
2023-05-05T09:50:17.757Z,19.6802
2023-05-05T09:51:17.843Z,19.7338
2023-05-05T09:52:17.863Z,19.8158
2023-05-05T09:53:18.177Z,19.8957
2023-05-05T09:54:18.278Z,19.9212
2023-05-05T09:55:18.650Z,19.9122
2023-05-05T09:56:19.119Z,19.9168
2023-05-05T09:57:20.404Z,19.9851
2023-05-05T09:58:20.703Z,20.0185
2023-05-05T09:59:20.629Z,20.0678
2023-05-05T10:00:21.293Z,20.1425
2023-05-05T10:01:21.266Z,20.1463
2023-05-05T10:02:21.598Z,20.2060
2023-05-05T10:03:21.722Z,20.2659
2023-05-05T10:04:21.879Z,20.2904
2023-05-05T10:05:22.110Z,20.3386
2023-05-05T10:06:22.396Z,20.4118
2023-05-05T10:07:23.685Z,20.4692
2023-05-05T10:08:23.712Z,20.4460
2023-05-05T10:09:25.323Z,20.4115
2023-05-05T10:10:26.920Z,20.4440
2023-05-05T10:11:25.865Z,20.5418
2023-05-05T10:12:27.021Z,20.4895
2023-05-05T10:13:27.361Z,20.5309
2023-05-05T10:14:28.612Z,20.6083
2023-05-05T10:15:28.899Z,20.6224
2023-05-05T10:16:29.712Z,20.7271
2023-05-05T10:17:30.282Z,20.6223
2023-05-05T10:18:30.947Z,20.6119
2023-05-05T10:19:30.873Z,20.5104
2023-05-05T10:20:31.087Z,20.5673
2023-05-05T10:21:31.140Z,20.4960
2023-05-05T10:22:31.325Z,20.4837
2023-05-05T10:23:31.464Z,20.4039
2023-05-05T10:24:31.746Z,20.4743
2023-05-05T10:27:33.220Z,20.6934
2023-05-05T10:28:33.347Z,20.7136
2023-05-05T10:29:34.827Z,20.7634
2023-05-05T10:30:35.417Z,20.9094
2023-05-05T10:31:35.551Z,21.0088
2023-05-05T10:33:42.679Z,20.9668
2023-05-05T10:34:43.809Z,21.0653
2023-05-05T10:35:45.028Z,21.0686
2023-05-05T10:36:45.333Z,21.0020
2023-05-05T10:37:45.242Z,20.9706
2023-05-05T10:38:45.304Z,21.0832
2023-05-05T10:39:46.760Z,21.1587
2023-05-05T10:40:47.625Z,21.0548
2023-05-05T10:41:48.004Z,21.1110
2023-05-05T10:42:48.004Z,21.0633
2023-05-05T10:43:48.171Z,21.0014
2023-05-05T10:44:48.286Z,21.0022
2023-05-05T10:45:49.115Z,21.0100
2023-05-05T10:46:49.663Z,20.9926
2023-05-05T10:47:50.118Z,20.8821
2023-05-05T10:48:50.744Z,20.8480
2023-05-05T10:49:50.689Z,20.8005
2023-05-05T10:50:50.823Z,20.8408
2023-05-05T10:51:51.407Z,20.7887
2023-05-05T10:52:51.683Z,20.8259
2023-05-05T10:53:52.978Z,20.8513
2023-05-05T10:54:53.418Z,20.8845
2023-05-05T10:55:53.386Z,20.9803
2023-05-05T10:56:53.820Z,21.0141
2023-05-05T10:57:53.831Z,21.0225
2023-05-05T10:59:00.141Z,21.0407
2023-05-05T10:59:55.230Z,21.0114
2023-05-05T11:00:55.503Z,20.9922
2023-05-05T11:01:56.291Z,21.0224
2023-05-05T11:02:57.236Z,21.1578
2023-05-05T11:03:57.949Z,21.2431
2023-05-05T11:04:58.233Z,21.3338
2023-05-05T11:05:58.380Z,21.3125
2023-05-05T11:06:59.649Z,21.3970
2023-05-05T11:08:00.709Z,21.4984
2023-05-05T11:09:00.821Z,21.5414
2023-05-05T11:10:01.002Z,21.5665
2023-05-05T11:11:01.860Z,21.5832
2023-05-05T11:12:02.315Z,21.6952
2023-05-05T11:13:02.750Z,21.7324
2023-05-05T11:14:03.757Z,21.7787
2023-05-05T11:15:03.919Z,21.8217
2023-05-05T11:16:04.097Z,21.8537
2023-05-05T11:17:04.681Z,21.8091
2023-05-05T11:18:07.376Z,21.8537
2023-05-05T11:19:05.063Z,21.8826
2023-05-05T11:20:05.121Z,21.9844
2023-05-05T11:21:05.481Z,21.8722
2023-05-05T11:22:05.689Z,21.9032
2023-05-05T11:23:05.886Z,22.0233
2023-05-05T11:24:06.056Z,22.1908
2023-05-05T11:25:07.249Z,22.1562
2023-05-05T11:26:07.502Z,22.2507
2023-05-05T11:27:08.921Z,22.3724
2023-05-05T11:28:09.107Z,22.5181
2023-05-05T11:29:09.272Z,22.5042
2023-05-05T11:30:10.520Z,22.5438
2023-05-05T11:31:10.709Z,22.7375
2023-05-05T11:32:11.010Z,22.7744
2023-05-05T11:33:11.141Z,22.5494
2023-05-05T11:34:12.378Z,22.7515
2023-05-05T11:35:12.497Z,22.7932
2023-05-05T11:36:13.950Z,23.0575
2023-05-05T11:37:15.285Z,23.1388
2023-05-05T11:38:15.478Z,23.1592
2023-05-05T11:39:16.763Z,23.1949
2023-05-05T11:40:17.019Z,23.2201
2023-05-05T11:41:17.071Z,23.0972
2023-05-05T11:42:18.305Z,23.1226
2023-05-05T11:43:18.530Z,23.1010
2023-05-05T11:44:18.570Z,23.2669
2023-05-05T11:45:18.693Z,23.5374
2023-05-05T11:46:19.104Z,23.5259
2023-05-05T11:47:19.596Z,23.7844
2023-05-05T11:48:20.080Z,23.9232
2023-05-05T11:49:20.637Z,23.6096
2023-05-05T11:50:20.590Z,23.8600
2023-05-05T11:51:20.714Z,23.7326
2023-05-05T11:52:20.765Z,23.5331
2023-05-05T11:53:21.050Z,23.5135
2023-05-05T11:54:21.285Z,23.5895
2023-05-05T11:55:21.369Z,23.5816
2023-05-05T11:56:22.810Z,23.5031
2023-05-05T11:57:22.895Z,23.5404
2023-05-05T11:58:23.136Z,23.5671
2023-05-05T11:59:24.423Z,23.2901
2023-05-05T12:00:24.621Z,23.1934
2023-05-05T12:01:25.915Z,22.9316
2023-05-05T12:02:26.332Z,22.9976
2023-05-05T12:03:28.138Z,22.5826
2023-05-05T12:04:28.533Z,22.7546
2023-05-05T12:05:28.916Z,22.8406
2023-05-05T12:06:29.233Z,22.8422
2023-05-05T12:07:29.370Z,23.0672
2023-05-05T12:08:29.402Z,23.0406
2023-05-05T12:09:29.503Z,23.1720
2023-05-05T12:10:30.642Z,23.2995
2023-05-05T12:11:31.966Z,23.2067
2023-05-05T12:12:32.337Z,23.6114
2023-05-05T12:13:33.246Z,23.9299
2023-05-05T12:14:34.464Z,24.0719
2023-05-05T12:15:34.676Z,24.1497
2023-05-05T12:16:34.882Z,24.2040
2023-05-05T12:17:35.533Z,24.2451
2023-05-05T12:18:36.222Z,24.1155
2023-05-05T12:19:36.337Z,24.4052
2023-05-05T12:20:37.680Z,24.3392
2023-05-05T12:21:37.860Z,24.3734
2023-05-05T12:22:38.058Z,24.4878
2023-05-05T12:23:38.616Z,24.2680
2023-05-05T12:24:38.630Z,24.2285
2023-05-05T12:25:38.864Z,24.1588
2023-05-05T12:26:38.876Z,24.0616
2023-05-05T12:27:39.285Z,24.1846
2023-05-05T12:28:39.356Z,24.4169
2023-05-05T12:29:39.623Z,24.4447
2023-05-05T12:30:40.655Z,24.3452
2023-05-05T12:31:41.095Z,24.5018
2023-05-05T12:32:41.716Z,24.5527
2023-05-05T12:33:41.942Z,24.7762
2023-05-05T12:34:42.107Z,25.1006
2023-05-05T12:35:42.100Z,24.7845
2023-05-05T12:36:42.685Z,25.2321
2023-05-05T12:37:43.914Z,25.3741
2023-05-05T12:38:44.154Z,25.4624
2023-05-05T12:39:45.634Z,25.5745
2023-05-05T12:40:46.407Z,25.2094
2023-05-05T12:41:46.537Z,24.9024
2023-05-05T12:42:46.627Z,24.7339
2023-05-05T12:43:46.822Z,24.9092
2023-05-05T12:44:46.800Z,25.1747
2023-05-05T12:45:47.135Z,25.1872
2023-05-05T12:46:47.617Z,25.4720
2023-05-05T12:47:48.059Z,25.6534
2023-05-05T12:48:48.601Z,26.1143
2023-05-05T12:49:48.941Z,26.0532
2023-05-05T12:50:50.450Z,26.5666
2023-05-05T12:51:50.516Z,26.6653
2023-05-05T12:52:50.724Z,26.3940
2023-05-05T12:53:51.753Z,26.1765
2023-05-05T12:54:52.953Z,26.3295
2023-05-05T12:55:53.277Z,26.2503
2023-05-05T12:56:53.482Z,26.6163
2023-05-05T12:57:53.666Z,26.7801
2023-05-05T12:58:53.864Z,26.3248
2023-05-05T12:59:55.174Z,26.5632
2023-05-05T13:00:55.739Z,26.8417
2023-05-05T13:01:56.202Z,26.6834